Time;durP1;ratioP1;P1;durP2;ratioP2;P2;SDS_P1;SDS_P2;PMS_P1;PMS_P2;Temp;Humidity;BMP_temperature;BMP_pressure;BME280_temperature;BME280_humidity;BME280_pressure;Samples;Min_cycle;Max_cycle;Signal;HPM_P1;HPM_P2
2022/07/09 00:00:10;;;;;;;1999.90;999.90;;;19.50;91.40;;;;;;5034556;28;20083;-73
2022/07/09 00:02:37;;;;;;;1999.90;999.90;;;19.40;91.60;;;;;;5032714;28;20379;-73
2022/07/09 00:05:03;;;;;;;1999.90;999.90;;;19.40;91.60;;;;;;5032090;28;20029;-73
2022/07/09 00:07:29;;;;;;;1999.90;999.90;;;19.40;91.60;;;;;;5032537;28;20037;-73
2022/07/09 00:09:54;;;;;;;1999.90;999.90;;;19.40;91.70;;;;;;5046219;28;20021;-74
2022/07/09 00:12:20;;;;;;;1999.90;999.90;;;19.40;91.80;;;;;;5038732;28;20546;-74
2022/07/09 00:14:46;;;;;;;1999.90;999.90;;;19.30;91.80;;;;;;5032341;28;20519;-73
2022/07/09 00:17:12;;;;;;;1999.90;999.90;;;19.30;92.00;;;;;;5032098;28;20499;-73
2022/07/09 00:19:38;;;;;;;1999.90;999.90;;;19.30;92.00;;;;;;5032133;28;20021;-74
2022/07/09 00:22:05;;;;;;;1999.90;999.90;;;19.20;92.10;;;;;;5032263;28;20033;-74
2022/07/09 00:24:31;;;;;;;1999.90;999.90;;;19.20;92.30;;;;;;5033304;28;20024;-74
2022/07/09 00:26:57;;;;;;;1999.90;999.90;;;19.20;92.20;;;;;;5036228;28;20033;-74
2022/07/09 00:29:23;;;;;;;1999.90;999.90;;;19.10;92.30;;;;;;5036273;28;20029;-73
2022/07/09 00:31:48;;;;;;;1999.90;999.90;;;19.10;92.60;;;;;;5036368;28;20076;-74
2022/07/09 00:34:14;;;;;;;1999.90;999.90;;;19.00;92.50;;;;;;5035816;28;20105;-73
2022/07/09 00:36:40;;;;;;;1999.90;999.90;;;19.00;92.70;;;;;;5036507;28;20079;-73
2022/07/09 00:39:05;;;;;;;1999.90;999.90;;;18.90;92.70;;;;;;5059370;28;20094;-74
2022/07/09 00:41:31;;;;;;;1999.90;999.90;;;18.80;92.90;;;;;;5035953;28;20124;-73
2022/07/09 00:43:56;;;;;;;1999.90;999.90;;;18.80;93.00;;;;;;5029367;28;20029;-73
2022/07/09 00:46:22;;;;;;;1999.90;999.90;;;18.80;93.00;;;;;;5036154;28;20029;-75
2022/07/09 00:48:48;;;;;;;1999.90;999.90;;;18.70;93.20;;;;;;5037855;28;20415;-74
2022/07/09 00:51:16;;;;;;;1999.90;999.90;;;18.70;93.30;;;;;;5035850;28;20473;-74
2022/07/09 00:53:42;;;;;;;1999.90;999.90;;;18.60;93.20;;;;;;5035803;28;20018;-73
2022/07/09 00:56:08;;;;;;;1999.90;999.90;;;18.60;93.40;;;;;;5035886;28;20025;-73
2022/07/09 00:58:34;;;;;;;1999.90;999.90;;;18.50;93.40;;;;;;5035833;28;20075;-73
2022/07/09 01:01:01;;;;;;;1999.90;999.90;;;18.50;93.50;;;;;;5044958;28;20025;-73
2022/07/09 01:03:27;;;;;;;1999.90;999.90;;;18.50;93.60;;;;;;5040886;28;20036;-73
2022/07/09 01:05:53;;;;;;;1999.90;999.90;;;18.50;93.50;;;;;;5035588;28;20492;-74
2022/07/09 01:08:19;;;;;;;1999.90;999.90;;;18.50;93.50;;;;;;5037902;28;20473;-73
2022/07/09 01:10:45;;;;;;;1999.90;999.90;;;18.40;93.60;;;;;;5047114;28;20033;-74
2022/07/09 01:13:11;;;;;;;1999.90;999.90;;;18.40;93.60;;;;;;5035938;28;20036;-73
2022/07/09 01:15:37;;;;;;;1999.90;999.90;;;18.40;93.50;;;;;;5035052;28;20026;-74
2022/07/09 01:18:03;;;;;;;1999.90;999.90;;;18.40;93.60;;;;;;5034960;28;20060;-75
2022/07/09 01:20:29;;;;;;;1999.90;999.90;;;18.40;93.60;;;;;;5035796;28;20033;-73
2022/07/09 01:22:55;;;;;;;1999.90;999.90;;;18.30;93.60;;;;;;5035160;28;20017;-73
2022/07/09 01:25:36;;;;;;;1999.90;999.90;;;18.30;93.70;;;;;;5035634;28;20028;-73
2022/07/09 01:28:05;;;;;;;1999.90;999.90;;;18.30;93.60;;;;;;5035272;28;20193;-74
2022/07/09 01:30:31;;;;;;;1999.90;999.90;;;18.30;93.70;;;;;;5035619;28;20022;-73
2022/07/09 01:32:57;;;;;;;1999.90;999.90;;;18.20;93.80;;;;;;5035128;28;20023;-73
2022/07/09 01:35:22;;;;;;;1999.90;999.90;;;18.20;93.60;;;;;;5035121;28;20029;-74
2022/07/09 01:37:48;;;;;;;1999.90;999.90;;;18.20;93.80;;;;;;5038919;28;20095;-74
2022/07/09 01:40:14;;;;;;;1999.90;999.90;;;18.20;93.60;;;;;;5053672;28;20022;-73
2022/07/09 01:42:39;;;;;;;1999.90;999.90;;;18.20;93.80;;;;;;5036172;28;20025;-74
2022/07/09 01:45:06;;;;;;;1999.90;999.90;;;18.10;93.70;;;;;;5044950;28;20030;-73
2022/07/09 01:47:32;;;;;;;1999.90;999.90;;;18.10;93.70;;;;;;5035067;28;20074;-73
2022/07/09 01:49:57;;;;;;;1999.90;999.90;;;18.20;93.70;;;;;;5034954;28;20037;-73
2022/07/09 01:52:24;;;;;;;1999.90;999.90;;;18.20;93.70;;;;;;5035015;28;20159;-73
2022/07/09 01:54:50;;;;;;;1999.90;999.90;;;18.10;93.80;;;;;;5034984;28;20500;-74
2022/07/09 01:57:15;;;;;;;1999.90;999.90;;;18.10;93.80;;;;;;5034921;28;20112;-74
2022/07/09 01:59:41;;;;;;;1999.90;999.90;;;18.10;94.00;;;;;;5034992;28;20025;-73
2022/07/09 02:02:07;;;;;;;1999.90;999.90;;;18.10;94.00;;;;;;5049605;28;20057;-73
2022/07/09 02:04:32;;;;;;;1999.90;999.90;;;18.00;94.00;;;;;;5034069;28;20463;-73
2022/07/09 02:06:58;;;;;;;1999.90;999.90;;;18.00;94.10;;;;;;5034807;28;20459;-74
2022/07/09 02:09:23;;;;;;;1999.90;999.90;;;18.00;94.10;;;;;;5045857;28;20169;-74
2022/07/09 02:11:49;;;;;;;1999.90;999.90;;;18.00;94.20;;;;;;5037529;28;20484;-73
2022/07/09 02:14:15;;;;;;;1999.90;999.90;;;17.90;94.20;;;;;;5034752;28;20025;-73
2022/07/09 02:16:41;;;;;;;1999.90;999.90;;;17.90;94.30;;;;;;5034383;28;20472;-74
2022/07/09 02:19:07;;;;;;;1999.90;999.90;;;17.80;94.30;;;;;;5034659;28;20485;-73
2022/07/09 02:21:33;;;;;;;1999.90;999.90;;;17.80;94.40;;;;;;5034269;28;20524;-74
2022/07/09 02:23:59;;;;;;;1999.90;999.90;;;17.70;94.50;;;;;;5034582;28;20388;-74
2022/07/09 02:26:27;;;;;;;1999.90;999.90;;;17.70;94.50;;;;;;5034438;28;20029;-73
2022/07/09 02:28:54;;;;;;;1999.90;999.90;;;17.70;94.70;;;;;;5034267;28;20055;-73
2022/07/09 02:31:19;;;;;;;1999.90;999.90;;;17.60;95.00;;;;;;5034147;28;20052;-74
2022/07/09 02:33:45;;;;;;;1999.90;999.90;;;17.60;95.00;;;;;;5034171;28;20025;-74
2022/07/09 02:36:10;;;;;;;1999.90;999.90;;;17.50;95.20;;;;;;5034004;28;20026;-74
2022/07/09 02:38:36;;;;;;;1999.90;999.90;;;17.50;95.40;;;;;;5051304;28;20055;-75
2022/07/09 02:41:02;;;;;;;1999.90;999.90;;;17.40;95.30;;;;;;5020384;28;20114;-73
2022/07/09 02:43:28;;;;;;;1999.90;999.90;;;17.40;95.50;;;;;;5041675;28;20092;-73
2022/07/09 02:45:55;;;;;;;1999.90;999.90;;;17.40;95.60;;;;;;5036250;28;20079;-74
2022/07/09 02:48:27;;;;;;;1999.90;999.90;;;17.30;95.80;;;;;;5033509;28;20020;-73
2022/07/09 02:50:53;;;;;;;1999.90;999.90;;;17.20;95.80;;;;;;5033938;28;20030;-73
2022/07/09 02:53:19;;;;;;;1999.90;999.90;;;17.20;96.00;;;;;;5034037;28;20029;-74
2022/07/09 02:55:45;;;;;;;1999.90;999.90;;;17.10;96.30;;;;;;5033912;28;20029;-74
2022/07/09 02:58:11;;;;;;;1999.90;999.90;;;17.20;96.30;;;;;;5033790;28;20040;-74
2022/07/09 03:00:40;;;;;;;1999.90;999.90;;;17.10;96.30;;;;;;5039957;28;20033;-74
2022/07/09 03:03:07;;;;;;;1999.90;999.90;;;17.10;96.30;;;;;;5041256;28;20384;-73
2022/07/09 03:05:34;;;;;;;1999.90;999.90;;;17.10;96.20;;;;;;5032935;28;20032;-74
2022/07/09 03:08:00;;;;;;;1999.90;999.90;;;17.10;96.60;;;;;;5034335;28;20030;-74
2022/07/09 03:10:26;;;;;;;1999.90;999.90;;;17.10;96.50;;;;;;5046838;28;20119;-74
2022/07/09 03:12:51;;;;;;;1999.90;999.90;;;17.10;96.40;;;;;;5033347;28;20030;-74
2022/07/09 03:15:17;;;;;;;1999.90;999.90;;;17.10;96.60;;;;;;5033349;28;20056;-73
2022/07/09 03:17:47;;;;;;;1999.90;999.90;;;17.10;96.70;;;;;;5032933;28;20060;-74
2022/07/09 03:20:14;;;;;;;1999.90;999.90;;;17.10;96.60;;;;;;5015644;28;20022;-73
2022/07/09 03:22:40;;;;;;;1999.90;999.90;;;17.10;96.60;;;;;;5033313;28;20479;-73
2022/07/09 03:25:07;;;;;;;1999.90;999.90;;;17.00;96.70;;;;;;5033232;28;20029;-74
2022/07/09 03:27:33;;;;;;;1999.90;999.90;;;17.00;96.90;;;;;;5033314;28;20025;-73
2022/07/09 03:29:59;;;;;;;1999.90;999.90;;;17.00;97.00;;;;;;5033090;28;20029;-73
2022/07/09 03:32:25;;;;;;;1999.90;999.90;;;16.90;97.10;;;;;;5033172;28;20071;-73
2022/07/09 03:34:54;;;;;;;1999.90;999.90;;;16.90;97.30;;;;;;5015186;28;20399;-73
2022/07/09 03:37:23;;;;;;;1999.90;999.90;;;16.90;97.20;;;;;;5033104;28;20379;-74
2022/07/09 03:39:49;;;;;;;1999.90;999.90;;;16.80;97.40;;;;;;5056582;28;20056;-74
2022/07/09 03:42:16;;;;;;;1999.90;999.90;;;16.80;97.50;;;;;;5033061;28;20045;-74
2022/07/09 03:44:41;;;;;;;1999.90;999.90;;;16.80;97.70;;;;;;5043673;28;20048;-73
2022/07/09 03:47:07;;;;;;;1999.90;999.90;;;16.80;97.50;;;;;;5033121;28;20112;-74
2022/07/09 03:49:33;;;;;;;1999.90;999.90;;;16.80;97.70;;;;;;5042637;28;20542;-74
2022/07/09 03:51:59;;;;;;;1999.90;999.90;;;16.70;97.80;;;;;;5032982;28;20029;-74
2022/07/09 03:54:25;;;;;;;1999.90;999.90;;;16.70;97.80;;;;;;5032767;28;20505;-73
2022/07/09 03:56:51;;;;;;;1999.90;999.90;;;16.70;98.00;;;;;;5032738;28;20037;-74
2022/07/09 03:59:17;;;;;;;1999.90;999.90;;;16.70;98.00;;;;;;5032804;28;20435;-73
2022/07/09 04:01:44;;;;;;;1999.90;999.90;;;16.60;98.00;;;;;;5047532;28;20102;-73
2022/07/09 04:04:10;;;;;;;1999.90;999.90;;;16.60;98.20;;;;;;5032315;28;20030;-74
2022/07/09 04:06:36;;;;;;;1999.90;999.90;;;16.60;98.30;;;;;;5032677;28;20035;-74
2022/07/09 04:09:04;;;;;;;1999.90;999.90;;;16.50;98.40;;;;;;5040923;28;20437;-73
2022/07/09 04:11:33;;;;;;;1999.90;999.90;;;16.50;98.40;;;;;;5037925;28;20112;-73
2022/07/09 04:14:02;;;;;;;1999.90;999.90;;;16.50;98.50;;;;;;5034847;28;20036;-73
2022/07/09 04:16:28;;;;;;;1999.90;999.90;;;16.50;98.70;;;;;;5014720;28;20057;-74
2022/07/09 04:18:54;;;;;;;1999.90;999.90;;;16.50;98.80;;;;;;5032833;28;20498;-74
2022/07/09 04:21:23;;;;;;;1999.90;999.90;;;16.40;98.70;;;;;;5032673;28;20030;-73
2022/07/09 04:23:49;;;;;;;1999.90;999.90;;;16.40;98.80;;;;;;5032570;28;20025;-73
2022/07/09 04:26:15;;;;;;;1999.90;999.90;;;16.40;99.00;;;;;;5032474;28;20116;-73
2022/07/09 04:28:41;;;;;;;1999.90;999.90;;;16.40;98.90;;;;;;5031129;28;20108;-74
2022/07/09 04:31:07;;;;;;;1999.90;999.90;;;16.40;98.90;;;;;;5031981;28;20112;-74
2022/07/09 04:33:32;;;;;;;1999.90;999.90;;;16.50;99.00;;;;;;5032446;28;20469;-73
2022/07/09 04:35:58;;;;;;;1999.90;999.90;;;16.40;99.10;;;;;;5032315;28;20415;-73
2022/07/09 04:38:24;;;;;;;1999.90;999.90;;;16.40;99.30;;;;;;5045874;28;20393;-73
2022/07/09 04:40:50;;;;;;;1999.90;999.90;;;16.40;99.10;;;;;;5039733;28;20064;-73
2022/07/09 04:43:16;;;;;;;1999.90;999.90;;;16.40;99.20;;;;;;5038568;28;20369;-74
2022/07/09 04:45:42;;;;;;;1999.90;999.90;;;16.40;99.30;;;;;;5036174;28;20071;-74
2022/07/09 04:48:08;;;;;;;1999.90;999.90;;;16.40;99.30;;;;;;5032445;28;20028;-73
2022/07/09 04:50:33;;;;;;;1999.90;999.90;;;16.40;99.40;;;;;;5032258;28;20025;-74
2022/07/09 04:52:59;;;;;;;1999.90;999.90;;;16.40;99.50;;;;;;5032242;28;20065;-74
2022/07/09 04:55:24;;;;;;;1999.90;999.90;;;16.40;99.60;;;;;;5032363;28;20096;-73
2022/07/09 04:57:50;;;;;;;1999.90;999.90;;;16.40;99.70;;;;;;5032388;28;20068;-73
2022/07/09 05:00:16;;;;;;;1999.90;999.90;;;16.40;99.80;;;;;;5035733;28;20438;-73
2022/07/09 05:02:44;;;;;;;1999.90;999.90;;;16.40;99.80;;;;;;5043334;28;20033;-74
2022/07/09 05:05:10;;;;;;;1999.90;999.90;;;16.40;99.80;;;;;;5031648;28;20121;-73
2022/07/09 05:07:36;;;;;;;1999.90;999.90;;;16.40;99.90;;;;;;5032442;28;20029;-74
2022/07/09 05:10:03;;;;;;;1999.90;999.90;;;16.50;99.90;;;;;;5046160;28;20025;-74
2022/07/09 05:12:29;;;;;;;1999.90;999.90;;;16.50;99.90;;;;;;5045069;28;20368;-73
2022/07/09 05:14:56;;;;;;;1999.90;999.90;;;16.50;99.90;;;;;;5039264;28;20033;-73
2022/07/09 05:17:22;;;;;;;1999.90;999.90;;;16.60;99.90;;;;;;5035515;28;20040;-73
2022/07/09 05:19:48;;;;;;;1999.90;999.90;;;16.60;99.90;;;;;;5035610;28;20022;-73
2022/07/09 05:22:14;;;;;;;1999.90;999.90;;;16.60;99.90;;;;;;5035532;28;20029;-73
2022/07/09 05:24:40;;;;;;;1999.90;999.90;;;16.70;99.90;;;;;;5035482;28;20017;-73
2022/07/09 05:27:06;;;;;;;1999.90;999.90;;;16.70;99.90;;;;;;5035558;28;20108;-73
2022/07/09 05:29:32;;;;;;;1999.90;999.90;;;16.80;99.90;;;;;;5035410;28;20057;-73
2022/07/09 05:31:58;;;;;;;1999.90;999.90;;;16.80;99.90;;;;;;5035626;28;20490;-73
2022/07/09 05:34:24;;;;;;;1999.90;999.90;;;16.90;99.90;;;;;;5035183;28;20052;-74
2022/07/09 05:36:54;;;;;;;1999.90;999.90;;;16.90;99.90;;;;;;5050099;28;20025;-74
2022/07/09 05:39:20;;;;;;;1999.90;999.90;;;17.00;99.90;;;;;;5062898;28;20072;-73
2022/07/09 05:41:46;;;;;;;1999.90;999.90;;;17.10;99.80;;;;;;5035372;28;20026;-73
2022/07/09 05:44:12;;;;;;;1999.90;999.90;;;17.20;99.60;;;;;;5045807;28;20025;-73
2022/07/09 05:46:38;;;;;;;1999.90;999.90;;;17.30;99.60;;;;;;5035296;28;20065;-73
2022/07/09 05:49:04;;;;;;;1999.90;999.90;;;17.40;99.40;;;;;;5035007;28;20029;-74
2022/07/09 05:51:29;;;;;;;1999.90;999.90;;;17.50;99.30;;;;;;5035366;28;20037;-73
2022/07/09 05:53:55;;;;;;;1999.90;999.90;;;17.70;99.20;;;;;;5034670;28;20485;-73
2022/07/09 05:56:21;;;;;;;1999.90;999.90;;;17.80;99.10;;;;;;5035097;28;20036;-73
2022/07/09 05:58:47;;;;;;;1999.90;999.90;;;17.90;98.70;;;;;;5035018;28;20056;-73
2022/07/09 06:01:13;;;;;;;1999.90;999.90;;;18.10;98.40;;;;;;5046290;28;20566;-73
2022/07/09 06:03:40;;;;;;;1999.90;999.90;;;18.20;98.30;;;;;;5038458;28;20079;-73
2022/07/09 06:06:06;;;;;;;1999.90;999.90;;;18.40;98.10;;;;;;5034146;28;20021;-73
2022/07/09 06:08:33;;;;;;;1999.90;999.90;;;18.50;97.90;;;;;;5038626;28;20024;-74
2022/07/09 06:10:59;;;;;;;1999.90;999.90;;;18.60;97.50;;;;;;5044618;28;20476;-73
2022/07/09 06:13:25;;;;;;;1999.90;999.90;;;18.70;97.40;;;;;;5037516;28;20029;-73
2022/07/09 06:15:51;;;;;;;1999.90;999.90;;;18.80;97.30;;;;;;5034684;28;20388;-74
2022/07/09 06:18:17;;;;;;;1999.90;999.90;;;19.00;97.30;;;;;;5034295;28;20476;-73
2022/07/09 06:20:43;;;;;;;1999.90;999.90;;;19.00;97.30;;;;;;5034724;28;20025;-73
2022/07/09 06:23:09;;;;;;;1999.90;999.90;;;19.20;97.20;;;;;;5032962;28;20496;-73
2022/07/09 06:25:34;;;;;;;1999.90;999.90;;;19.30;96.80;;;;;;5034636;28;20060;-74
2022/07/09 06:28:00;;;;;;;1999.90;999.90;;;19.50;96.30;;;;;;5034390;28;20029;-74
2022/07/09 06:30:26;;;;;;;1999.90;999.90;;;19.50;96.40;;;;;;5034286;28;20075;-73
2022/07/09 06:32:51;;;;;;;1999.90;999.90;;;19.70;96.20;;;;;;5034091;28;20061;-73
2022/07/09 06:35:18;;;;;;;1999.90;999.90;;;19.80;96.00;;;;;;5034034;28;20022;-74
2022/07/09 06:37:44;;;;;;;1999.90;999.90;;;19.90;95.70;;;;;;5036820;28;20041;-73
2022/07/09 06:40:09;;;;;;;1999.90;999.90;;;20.10;95.70;;;;;;5054308;28;20072;-74
2022/07/09 06:42:35;;;;;;;1999.90;999.90;;;20.20;95.70;;;;;;5034642;28;20052;-74
2022/07/09 06:45:01;;;;;;;1999.90;999.90;;;20.30;95.50;;;;;;5044220;28;20400;-74
2022/07/09 06:47:26;;;;;;;1999.90;999.90;;;20.50;95.30;;;;;;5034046;28;20025;-73
2022/07/09 06:49:52;;;;;;;1999.90;999.90;;;20.60;94.90;;;;;;5034048;28;20080;-73
2022/07/09 06:52:18;;;;;;;1999.90;999.90;;;20.80;94.80;;;;;;5034046;28;20075;-73
2022/07/09 06:54:43;;;;;;;1999.90;999.90;;;20.90;94.70;;;;;;5033838;28;20041;-74
2022/07/09 06:57:10;;;;;;;1999.90;999.90;;;21.00;94.50;;;;;;5033966;28;20473;-73
2022/07/09 06:59:36;;;;;;;1999.90;999.90;;;21.20;94.40;;;;;;5034133;28;20017;-73
2022/07/09 07:02:01;;;;;;;1999.90;999.90;;;21.30;93.90;;;;;;5048375;28;20025;-73
2022/07/09 07:04:27;;;;;;;1999.90;999.90;;;21.40;94.00;;;;;;5033809;28;20430;-73
2022/07/09 07:06:53;;;;;;;1999.90;999.90;;;21.60;94.00;;;;;;5033050;28;20025;-74
2022/07/09 07:09:21;;;;;;;1999.90;999.90;;;21.70;93.40;;;;;;5044192;28;20521;-74
2022/07/09 07:11:50;;;;;;;1999.90;999.90;;;21.80;93.20;;;;;;5018815;28;20550;-74
2022/07/09 07:14:16;;;;;;;1999.90;999.90;;;21.90;93.10;;;;;;5035963;28;20032;-74
2022/07/09 07:16:43;;;;;;;1999.90;999.90;;;22.10;93.10;;;;;;5032714;28;20511;-74
2022/07/09 07:19:10;;;;;;;1999.90;999.90;;;22.20;92.70;;;;;;5033413;28;20022;-73
2022/07/09 07:21:39;;;;;;;1999.90;999.90;;;22.40;92.60;;;;;;5033260;28;20096;-74
2022/07/09 07:24:05;;;;;;;1999.90;999.90;;;22.50;92.10;;;;;;5033412;28;20045;-74
2022/07/09 07:26:32;;;;;;;1999.90;999.90;;;22.60;92.30;;;;;;5033351;28;20036;-74
2022/07/09 07:28:58;;;;;;;1999.90;999.90;;;22.80;92.10;;;;;;5033290;28;20032;-73
2022/07/09 07:31:24;;;;;;;1999.90;999.90;;;22.90;91.90;;;;;;5033184;28;20033;-74
2022/07/09 07:33:50;;;;;;;1999.90;999.90;;;23.10;91.70;;;;;;5032928;28;20028;-74
2022/07/09 07:36:16;;;;;;;1999.90;999.90;;;23.40;91.20;;;;;;5033085;28;20056;-74
2022/07/09 07:38:42;;;;;;;1999.90;999.90;;;23.90;90.80;;;;;;5051716;28;20515;-74
2022/07/09 07:41:07;;;;;;;1999.90;999.90;;;26.10;88.10;;;;;;5036957;28;20032;-74
2022/07/09 07:43:33;;;;;;;1999.90;999.90;;;28.40;83.60;;;;;;5041455;28;20511;-74
2022/07/09 07:45:59;;;;;;;1999.90;999.90;;;29.80;80.30;;;;;;5035276;28;20072;-74
2022/07/09 07:48:27;;;;;;;1999.90;999.90;;;30.50;78.70;;;;;;5033094;28;20477;-74
2022/07/09 07:50:53;;;;;;;1999.90;999.90;;;30.80;77.70;;;;;;5042866;28;20040;-72
2022/07/09 07:53:19;;;;;;;1999.90;999.90;;;31.50;77.40;;;;;;5032787;28;20029;-72
2022/07/09 07:55:44;;;;;;;1999.90;999.90;;;32.10;75.70;;;;;;5032877;28;20029;-72
2022/07/09 07:58:10;;;;;;;1999.90;999.90;;;32.20;75.90;;;;;;5032903;28;20119;-72
2022/07/09 08:00:37;;;;;;;1999.90;999.90;;;32.40;75.50;;;;;;5020594;28;20504;-72
2022/07/09 08:03:03;;;;;;;1999.90;999.90;;;33.10;74.30;;;;;;5041564;28;20112;-72
2022/07/09 08:05:28;;;;;;;1999.90;999.90;;;33.40;74.80;;;;;;5032700;28;20119;-72
2022/07/09 08:07:54;;;;;;;1999.90;999.90;;;33.60;73.70;;;;;;5032817;28;20033;-72
2022/07/09 08:10:20;;;;;;;1999.90;999.90;;;34.10;73.10;;;;;;5045944;28;20037;-72
2022/07/09 08:12:45;;;;;;;1999.90;999.90;;;34.30;72.90;;;;;;5032702;28;20037;-72
2022/07/09 08:15:11;;;;;;;1999.90;999.90;;;34.50;71.80;;;;;;5046108;28;20484;-72
2022/07/09 08:17:37;;;;;;;1999.90;999.90;;;35.00;71.40;;;;;;5032488;28;20393;-72
2022/07/09 08:20:04;;;;;;;1999.90;999.90;;;35.00;71.40;;;;;;5032469;28;20477;-72
2022/07/09 08:22:30;;;;;;;1999.90;999.90;;;34.80;71.30;;;;;;5032368;28;20113;-73
2022/07/09 08:24:55;;;;;;;1999.90;999.90;;;35.60;70.70;;;;;;5032341;28;20053;-72
2022/07/09 08:27:21;;;;;;;1999.90;999.90;;;35.70;69.80;;;;;;5032398;28;20030;-73
2022/07/09 08:29:48;;;;;;;1999.90;999.90;;;35.70;70.40;;;;;;5032441;28;20079;-72
2022/07/09 08:32:14;;;;;;;1999.90;999.90;;;36.20;70.20;;;;;;5032337;28;20534;-72
2022/07/09 08:34:40;;;;;;;1999.90;999.90;;;36.10;69.60;;;;;;5032118;28;20033;-72
2022/07/09 08:37:05;;;;;;;1999.90;999.90;;;36.60;69.90;;;;;;5032860;28;20041;-72
2022/07/09 08:39:31;;;;;;;1999.90;999.90;;;36.90;70.60;;;;;;5054595;28;20393;-72
2022/07/09 08:41:58;;;;;;;1999.90;999.90;;;36.90;70.00;;;;;;5032445;28;20155;-72
2022/07/09 08:44:28;;;;;;;1999.90;999.90;;;37.30;68.50;;;;;;5042707;28;20147;-73
2022/07/09 08:46:55;;;;;;;1999.90;999.90;;;37.60;69.40;;;;;;5035854;28;20120;-73
2022/07/09 08:49:24;;;;;;;1999.90;999.90;;;38.30;68.40;;;;;;5036244;28;20021;-73
2022/07/09 08:51:51;;;;;;;1999.90;999.90;;;37.60;67.90;;;;;;5036338;28;20369;-73
2022/07/09 08:54:20;;;;;;;1999.90;999.90;;;37.10;67.90;;;;;;5035925;28;20027;-73
2022/07/09 08:56:45;;;;;;;1999.90;999.90;;;37.40;67.90;;;;;;5036166;28;20029;-72
2022/07/09 08:59:11;;;;;;;1999.90;999.90;;;38.00;67.70;;;;;;5043007;28;20021;-72
2022/07/09 09:01:37;;;;;;;1999.90;999.90;;;38.30;68.20;;;;;;5055822;28;20475;-72
2022/07/09 09:04:02;;;;;;;1999.90;999.90;;;38.60;67.80;;;;;;5036248;28;20021;-73
2022/07/09 09:06:28;;;;;;;1999.90;999.90;;;38.10;68.10;;;;;;5036025;28;20416;-73
2022/07/09 09:08:57;;;;;;;1999.90;999.90;;;38.80;67.70;;;;;;5042276;28;20096;-72
2022/07/09 09:11:25;;;;;;;1999.90;999.90;;;37.90;66.70;;;;;;5042240;28;20025;-73
2022/07/09 09:13:51;;;;;;;1999.90;999.90;;;38.50;67.70;;;;;;5055878;28;20451;-73
2022/07/09 09:16:18;;;;;;;1999.90;999.90;;;38.80;67.30;;;;;;5041443;28;20025;-73
2022/07/09 09:18:47;;;;;;;1999.90;999.90;;;38.90;67.00;;;;;;5035854;28;20076;-73
2022/07/09 09:21:15;;;;;;;1999.90;999.90;;;38.90;66.60;;;;;;5035540;28;20033;-72
2022/07/09 09:23:45;;;;;;;1999.90;999.90;;;38.50;66.80;;;;;;5035409;28;20022;-72
2022/07/09 09:26:16;;;;;;;1999.90;999.90;;;38.60;67.10;;;;;;5035722;28;20025;-73
2022/07/09 09:28:47;;;;;;;1999.90;999.90;;;38.50;66.80;;;;;;5035428;28;20051;-73
2022/07/09 09:31:32;;;;;;;1999.90;999.90;;;37.70;67.00;;;;;;5035245;28;20739;-73
2022/07/09 09:34:14;;;;;;;1999.90;999.90;;;37.80;66.60;;;;;;5035332;28;20064;-73
2022/07/09 09:36:45;;;;;;;1999.90;999.90;;;38.00;67.20;;;;;;5035439;28;20083;-73
2022/07/09 09:39:21;;;;;;;1999.90;999.90;;;38.10;66.60;;;;;;5039042;28;20045;-73
2022/07/09 09:41:47;;;;;;;1999.90;999.90;;;38.40;66.90;;;;;;5035408;28;20025;-73
2022/07/09 09:44:15;;;;;;;1999.90;999.90;;;38.00;66.40;;;;;;5045203;28;20017;-73
2022/07/09 09:46:43;;;;;;;1999.90;999.90;;;38.40;66.90;;;;;;5035340;28;20057;-73
2022/07/09 09:49:10;;;;;;;1999.90;999.90;;;38.60;66.70;;;;;;5035123;28;20026;-73
2022/07/09 09:51:44;;;;;;;1999.90;999.90;;;38.30;66.70;;;;;;5035206;28;20072;-72
2022/07/09 09:54:11;;;;;;;1999.90;999.90;;;38.20;67.30;;;;;;5034857;28;20029;-73
2022/07/09 09:56:38;;;;;;;1999.90;999.90;;;39.00;66.90;;;;;;5034846;28;20029;-73
2022/07/09 09:59:04;;;;;;;1999.90;999.90;;;39.00;66.00;;;;;;5035036;28;20033;-73
2022/07/09 10:01:30;;;;;;;1999.90;999.90;;;38.60;66.30;;;;;;5048208;28;20028;-73
2022/07/09 10:03:56;;;;;;;1999.90;999.90;;;38.70;66.40;;;;;;5035930;28;20488;-73
2022/07/09 10:06:22;;;;;;;1999.90;999.90;;;39.00;66.30;;;;;;5035032;28;20048;-73
2022/07/09 10:08:48;;;;;;;1999.90;999.90;;;37.90;66.30;;;;;;5040089;28;20021;-73
2022/07/09 10:11:13;;;;;;;1999.90;999.90;;;37.90;67.20;;;;;;5042362;28;20444;-73
2022/07/09 10:13:58;;;;;;;1999.90;999.90;;;37.90;66.60;;;;;;5034602;28;20017;-73
2022/07/09 10:16:35;;;;;;;1999.90;999.90;;;38.00;66.80;;;;;;5034114;28;20033;-72
2022/07/09 10:19:01;;;;;;;1999.90;999.90;;;38.10;67.60;;;;;;5034431;28;20447;-73
2022/07/09 10:21:34;;;;;;;1999.90;999.90;;;38.00;66.50;;;;;;5034365;28;20022;-73
2022/07/09 10:24:00;;;;;;;1999.90;999.90;;;38.20;67.10;;;;;;5034042;28;20384;-72
2022/07/09 10:26:46;;;;;;;1999.90;999.90;;;38.10;66.50;;;;;;5034480;28;20029;-73
2022/07/09 10:29:26;;;;;;;1999.90;999.90;;;38.20;67.00;;;;;;5033957;28;20488;-74
2022/07/09 10:31:56;;;;;;;1999.90;999.90;;;38.50;67.10;;;;;;5034400;28;20103;-73
2022/07/09 10:34:34;;;;;;;1999.90;999.90;;;38.80;66.80;;;;;;5034040;28;20489;-74
2022/07/09 10:37:04;;;;;;;1999.90;999.90;;;39.10;66.30;;;;;;5034669;28;20087;-73
2022/07/09 10:39:30;;;;;;;1999.90;999.90;;;38.30;66.30;;;;;;5057268;28;20077;-73
2022/07/09 10:42:19;;;;;;;1999.90;999.90;;;37.80;67.30;;;;;;5034108;28;20107;-73
2022/07/09 10:44:45;;;;;;;1999.90;999.90;;;38.20;66.90;;;;;;5052226;28;20020;-74
2022/07/09 10:47:12;;;;;;;1999.90;999.90;;;37.90;66.70;;;;;;5040162;28;20029;-73
2022/07/09 10:49:38;;;;;;;1999.90;999.90;;;38.10;67.20;;;;;;5034253;28;20029;-73
2022/07/09 10:52:08;;;;;;;1999.90;999.90;;;37.70;66.60;;;;;;5035677;28;20542;-73
2022/07/09 10:54:44;;;;;;;1999.90;999.90;;;37.70;67.10;;;;;;5033988;28;20024;-73
2022/07/09 10:57:10;;;;;;;1999.90;999.90;;;37.70;66.20;;;;;;5033893;28;20037;-73
2022/07/09 10:59:37;;;;;;;1999.90;999.90;;;37.40;67.20;;;;;;5033963;28;20535;-74
2022/07/09 11:02:02;;;;;;;1999.90;999.90;;;37.40;67.20;;;;;;5048212;28;20075;-74
2022/07/09 11:04:30;;;;;;;1999.90;999.90;;;37.50;67.10;;;;;;5033834;28;20021;-73
2022/07/09 11:06:56;;;;;;;1999.90;999.90;;;38.10;66.70;;;;;;5033816;28;20025;-73
2022/07/09 11:09:22;;;;;;;1999.90;999.90;;;38.50;66.10;;;;;;5043368;28;20047;-74
2022/07/09 11:11:48;;;;;;;1999.90;999.90;;;38.40;66.30;;;;;;5036340;28;20025;-73
2022/07/09 11:14:14;;;;;;;1999.90;999.90;;;38.20;65.70;;;;;;5035717;28;20021;-74
2022/07/09 11:16:40;;;;;;;1999.90;999.90;;;37.90;66.60;;;;;;5036297;28;20034;-73
2022/07/09 11:19:15;;;;;;;1999.90;999.90;;;37.90;66.20;;;;;;5033553;28;20024;-73
2022/07/09 11:21:41;;;;;;;1999.90;999.90;;;38.00;66.30;;;;;;5033434;28;20370;-74
2022/07/09 11:24:19;;;;;;;1999.90;999.90;;;38.10;66.10;;;;;;5033373;28;20055;-73
2022/07/09 11:26:48;;;;;;;1999.90;999.90;;;38.40;65.70;;;;;;5033235;28;20033;-73
2022/07/09 11:29:16;;;;;;;1999.90;999.90;;;38.20;65.30;;;;;;5033529;28;20487;-73
2022/07/09 11:31:52;;;;;;;1999.90;999.90;;;38.30;65.70;;;;;;5032819;28;20033;-72
2022/07/09 11:34:19;;;;;;;1999.90;999.90;;;38.30;65.00;;;;;;5032855;28;20096;-73
2022/07/09 11:36:47;;;;;;;1999.90;999.90;;;38.10;65.80;;;;;;5015478;28;20468;-73
2022/07/09 11:39:26;;;;;;;1999.90;999.90;;;37.90;65.40;;;;;;5055071;28;20040;-74
2022/07/09 11:41:53;;;;;;;1999.90;999.90;;;37.40;65.70;;;;;;5033095;28;20041;-73
2022/07/09 11:44:25;;;;;;;1999.90;999.90;;;37.30;65.60;;;;;;5043365;28;20105;-73
2022/07/09 11:47:06;;;;;;;1999.90;999.90;;;37.80;66.50;;;;;;5033023;28;20034;-74
2022/07/09 11:49:43;;;;;;;1999.90;999.90;;;37.40;65.50;;;;;;5040403;28;20055;-73
2022/07/09 11:52:19;;;;;;;1999.90;999.90;;;37.30;65.70;;;;;;5052895;28;20017;-73
2022/07/09 11:55:00;;;;;;;1999.90;999.90;;;37.20;66.40;;;;;;5052865;28;20365;-73
2022/07/09 11:57:27;;;;;;;1999.90;999.90;;;37.30;66.90;;;;;;5034791;28;20373;-73